Time;durP1;ratioP1;P1;durP2;ratioP2;P2;SDS_P1;SDS_P2;PMS_P1;PMS_P2;Temp;Humidity;BMP_temperature;BMP_pressure;BME280_temperature;BME280_humidity;BME280_pressure;Samples;Min_cycle;Max_cycle;Signal;HPM_P1;HPM_P2
2021/11/03 00:01:12;;;;;;;0.45;0.45;;;;;;;;;;5008483;28;20030;-73
2021/11/03 00:03:39;;;;;;;0.75;0.75;;;;;;;;;;5009409;28;20036;-74
2021/11/03 00:06:05;;;;;;;0.20;0.20;;;;;;;;;;5008804;28;20034;-74
2021/11/03 00:08:32;;;;;;;0.40;0.35;;;;;;;;;;5008349;28;20018;-75
2021/11/03 00:10:58;;;;;;;0.28;0.28;;;;;;;;;;5008993;28;20033;-74
2021/11/03 00:13:25;;;;;;;0.68;0.68;;;;;;;;;;5008828;28;20036;-72
2021/11/03 00:15:52;;;;;;;0.35;0.32;;;;;;;;;;5008418;28;20025;-75
2021/11/03 00:18:18;;;;;;;0.65;0.65;;;;;;;;;;5008683;28;20664;-74
2021/11/03 00:20:44;;;;;;;0.10;0.10;;;;;;;;;;5008267;28;20054;-75
2021/11/03 00:23:10;;;;;;;0.28;0.28;;;;;;;;;;5007875;28;20412;-75
2021/11/03 00:25:45;;;;;;;1.30;0.93;;;;;;;;;;5009097;28;20052;-74
2021/11/03 00:28:12;;;;;;;0.65;0.57;;;;;;;;;;5007780;28;20038;-74
2021/11/03 00:30:38;;;;;;;0.22;0.22;;;;;;;;;;5009266;28;20037;-74
2021/11/03 00:33:04;;;;;;;0.50;0.25;;;;;;;;;;5008992;28;20493;-74
2021/11/03 00:35:30;;;;;;;0.10;0.10;;;;;;;;;;5010409;28;20041;-72
2021/11/03 00:37:56;;;;;;;0.77;0.77;;;;;;;;;;5008085;28;20551;-75
2021/11/03 00:40:22;;;;;;;1.13;0.75;;;;;;;;;;5009116;28;20069;-74
2021/11/03 00:42:50;;;;;;;0.95;0.85;;;;;;;;;;5007955;28;20025;-75
2021/11/03 00:45:16;;;;;;;0.40;0.40;;;;;;;;;;5008741;28;20097;-75
2021/11/03 00:47:42;;;;;;;0.40;0.40;;;;;;;;;;5007825;28;20164;-75
2021/11/03 00:50:08;;;;;;;0.55;0.55;;;;;;;;;;5012093;28;20026;-74
2021/11/03 00:52:34;;;;;;;0.82;0.73;;;;;;;;;;5008202;28;20042;-75
2021/11/03 00:55:00;;;;;;;0.73;0.73;;;;;;;;;;5007650;28;20036;-74
2021/11/03 00:57:26;;;;;;;0.63;0.55;;;;;;;;;;5008596;28;20405;-75
2021/11/03 00:59:52;;;;;;;0.60;0.60;;;;;;;;;;5013876;28;20033;-74
2021/11/03 01:02:18;;;;;;;0.20;0.20;;;;;;;;;;5008000;28;20037;-74
2021/11/03 01:04:45;;;;;;;1.33;0.68;;;;;;;;;;5011039;28;20034;-74
2021/11/03 01:07:11;;;;;;;0.10;0.10;;;;;;;;;;5011903;28;20026;-74
2021/11/03 01:09:37;;;;;;;0.15;0.15;;;;;;;;;;5011853;28;20064;-74
2021/11/03 01:12:03;;;;;;;2.13;0.70;;;;;;;;;;5012144;28;20045;-74
2021/11/03 01:14:29;;;;;;;1.00;0.80;;;;;;;;;;5011321;28;20025;-75
2021/11/03 01:16:55;;;;;;;1.75;0.75;;;;;;;;;;5011421;28;20053;-75
2021/11/03 01:19:21;;;;;;;1.55;1.23;;;;;;;;;;5014149;28;20049;-75
2021/11/03 01:21:47;;;;;;;6.43;0.95;;;;;;;;;;5018264;28;20030;-75
2021/11/03 01:24:12;;;;;;;2.50;1.17;;;;;;;;;;5011260;28;20034;-74
2021/11/03 01:26:38;;;;;;;0.45;0.45;;;;;;;;;;5012328;28;20034;-75
2021/11/03 01:29:05;;;;;;;0.47;0.30;;;;;;;;;;5011411;28;20092;-74
2021/11/03 01:31:30;;;;;;;0.63;0.60;;;;;;;;;;5011936;28;20397;-74
2021/11/03 01:33:56;;;;;;;0.47;0.38;;;;;;;;;;5011552;28;20030;-74
2021/11/03 01:36:23;;;;;;;0.45;0.45;;;;;;;;;;5011263;28;20108;-75
2021/11/03 01:38:50;;;;;;;2.72;1.45;;;;;;;;;;5013772;28;20029;-74
2021/11/03 01:41:16;;;;;;;1.40;0.65;;;;;;;;;;5011408;28;20022;-74
2021/11/03 01:43:43;;;;;;;0.30;0.30;;;;;;;;;;5011735;28;20109;-74
2021/11/03 01:46:24;;;;;;;0.98;0.68;;;;;;;;;;5016445;28;20104;-74
2021/11/03 01:48:54;;;;;;;1.50;1.38;;;;;;;;;;5013991;28;20025;-73
2021/11/03 01:51:25;;;;;;;1.70;0.63;;;;;;;;;;5017061;28;20116;-75
2021/11/03 01:53:51;;;;;;;21.08;2.83;;;;;;;;;;5011360;28;20593;-74
2021/11/03 01:56:18;;;;;;;2.38;1.48;;;;;;;;;;5010909;28;20469;-75
2021/11/03 01:58:50;;;;;;;1.70;1.10;;;;;;;;;;5012039;28;20026;-74
2021/11/03 02:01:16;;;;;;;0.50;0.50;;;;;;;;;;5014211;28;20037;-74
2021/11/03 02:03:43;;;;;;;1.13;0.75;;;;;;;;;;5011951;28;20038;-75
2021/11/03 02:06:10;;;;;;;1.45;1.15;;;;;;;;;;5009754;28;20032;-75
2021/11/03 02:08:39;;;;;;;0.73;0.73;;;;;;;;;;5011622;28;20026;-75
2021/11/03 02:11:05;;;;;;;0.50;0.50;;;;;;;;;;5010664;28;20686;-75
2021/11/03 02:13:31;;;;;;;3.40;1.40;;;;;;;;;;5012419;28;20064;-75
2021/11/03 02:15:57;;;;;;;0.40;0.40;;;;;;;;;;5010492;28;20048;-76
2021/11/03 02:18:23;;;;;;;1.98;1.15;;;;;;;;;;5011003;28;20041;-74
2021/11/03 02:20:51;;;;;;;1.45;1.35;;;;;;;;;;5010713;28;20037;-74
2021/11/03 02:23:21;;;;;;;0.47;0.47;;;;;;;;;;5009543;28;20489;-74
2021/11/03 02:25:53;;;;;;;1.10;0.50;;;;;;;;;;5011288;28;20033;-74
2021/11/03 02:28:19;;;;;;;0.88;0.60;;;;;;;;;;5010571;28;20034;-75
2021/11/03 02:30:45;;;;;;;0.63;0.63;;;;;;;;;;5011101;28;20038;-74
2021/11/03 02:33:16;;;;;;;0.73;0.73;;;;;;;;;;5010745;28;20511;-75
2021/11/03 02:35:48;;;;;;;0.52;0.52;;;;;;;;;;5010954;28;20484;-74
2021/11/03 02:38:18;;;;;;;4.68;1.95;;;;;;;;;;5011082;28;20552;-74
2021/11/03 02:40:55;;;;;;;0.60;0.60;;;;;;;;;;5010726;28;20038;-74
2021/11/03 02:43:28;;;;;;;0.60;0.60;;;;;;;;;;5008878;28;20168;-74
2021/11/03 02:45:55;;;;;;;0.50;0.50;;;;;;;;;;5009948;28;20029;-75
2021/11/03 02:48:23;;;;;;;2.63;1.27;;;;;;;;;;5010328;28;20034;-74
2021/11/03 02:50:57;;;;;;;3.40;3.10;;;;;;;;;;5005711;28;20029;-74
2021/11/03 02:53:23;;;;;;;6.95;3.10;;;;;;;;;;5009750;28;20152;-74
2021/11/03 02:55:49;;;;;;;0.25;0.25;;;;;;;;;;5010574;28;20034;-74
2021/11/03 02:58:15;;;;;;;2.53;1.38;;;;;;;;;;5013923;28;20034;-74
2021/11/03 03:00:41;;;;;;;0.10;0.10;;;;;;;;;;5009327;28;20034;-75
2021/11/03 03:03:07;;;;;;;0.30;0.30;;;;;;;;;;5010036;28;20065;-75
2021/11/03 03:05:33;;;;;;;1.05;0.95;;;;;;;;;;5010582;28;20131;-74
2021/11/03 03:07:59;;;;;;;4.30;2.03;;;;;;;;;;5011538;28;20024;-75
2021/11/03 03:10:25;;;;;;;1.73;1.15;;;;;;;;;;5010655;28;20025;-75
2021/11/03 03:12:51;;;;;;;0.40;0.40;;;;;;;;;;5010167;28;20029;-74
2021/11/03 03:15:17;;;;;;;0.77;0.75;;;;;;;;;;5009961;28;20034;-74
2021/11/03 03:17:43;;;;;;;0.60;0.60;;;;;;;;;;5009392;28;20050;-74
2021/11/03 03:20:09;;;;;;;0.50;0.50;;;;;;;;;;5008998;28;20452;-74
2021/11/03 03:22:36;;;;;;;8.73;1.25;;;;;;;;;;5009013;28;20369;-75
2021/11/03 03:25:02;;;;;;;2.20;1.13;;;;;;;;;;5009469;28;20128;-74
2021/11/03 03:27:28;;;;;;;0.80;0.80;;;;;;;;;;5009003;28;20024;-74
2021/11/03 03:29:54;;;;;;;1.27;1.20;;;;;;;;;;5009166;28;20014;-74
2021/11/03 03:32:22;;;;;;;1.10;1.10;;;;;;;;;;5009797;28;20458;-74
2021/11/03 03:34:48;;;;;;;1.17;0.75;;;;;;;;;;5013086;28;20030;-74
2021/11/03 03:37:14;;;;;;;0.38;0.38;;;;;;;;;;5008715;28;20088;-75
2021/11/03 03:39:40;;;;;;;0.65;0.55;;;;;;;;;;5009679;28;20029;-75
2021/11/03 03:42:08;;;;;;;0.20;0.20;;;;;;;;;;5012275;28;20404;-75
2021/11/03 03:44:34;;;;;;;1.73;1.63;;;;;;;;;;5007507;28;20053;-76
2021/11/03 03:47:00;;;;;;;1.80;1.08;;;;;;;;;;5007495;28;20025;-74
2021/11/03 03:49:26;;;;;;;1.77;1.67;;;;;;;;;;5009122;28;20080;-74
2021/11/03 03:51:52;;;;;;;13.80;2.90;;;;;;;;;;5009187;28;20038;-75
2021/11/03 03:54:18;;;;;;;1.30;1.20;;;;;;;;;;5008116;28;20544;-74
2021/11/03 03:56:44;;;;;;;1.13;1.02;;;;;;;;;;5008574;28;20045;-74
2021/11/03 03:59:10;;;;;;;3.40;1.75;;;;;;;;;;5008897;28;20026;-74
2021/11/03 04:01:36;;;;;;;0.90;0.90;;;;;;;;;;5008140;28;20034;-74
2021/11/03 04:04:02;;;;;;;0.57;0.57;;;;;;;;;;5010022;28;20027;-74
2021/11/03 04:06:28;;;;;;;1.52;1.42;;;;;;;;;;5012911;28;20026;-74
2021/11/03 04:08:54;;;;;;;5.28;2.35;;;;;;;;;;5009022;28;20088;-74
2021/11/03 04:11:20;;;;;;;0.47;0.47;;;;;;;;;;5007324;28;20036;-74
2021/11/03 04:13:46;;;;;;;0.73;0.73;;;;;;;;;;5013418;28;20053;-74
2021/11/03 04:16:12;;;;;;;25.85;0.93;;;;;;;;;;5008811;28;20041;-74
2021/11/03 04:18:38;;;;;;;0.50;0.50;;;;;;;;;;5008330;28;20018;-74
2021/11/03 04:21:04;;;;;;;0.63;0.63;;;;;;;;;;5010240;28;20539;-74
2021/11/03 04:23:30;;;;;;;1.85;1.40;;;;;;;;;;5012789;28;20428;-74
2021/11/03 04:25:56;;;;;;;0.80;0.80;;;;;;;;;;5011403;28;20032;-74
2021/11/03 04:28:22;;;;;;;0.60;0.15;;;;;;;;;;5017518;28;20029;-74
2021/11/03 04:30:48;;;;;;;2.25;0.90;;;;;;;;;;5006828;28;20064;-74
2021/11/03 04:33:15;;;;;;;0.40;0.20;;;;;;;;;;5004601;28;20057;-74
2021/11/03 04:35:41;;;;;;;2.60;1.30;;;;;;;;;;5007502;28;20026;-74
2021/11/03 04:38:07;;;;;;;3.08;0.98;;;;;;;;;;5007446;28;20388;-74
2021/11/03 04:40:33;;;;;;;1.20;0.95;;;;;;;;;;5008178;28;20068;-73
2021/11/03 04:42:59;;;;;;;0.45;0.45;;;;;;;;;;5007757;28;20038;-74
2021/11/03 04:45:26;;;;;;;1.60;0.63;;;;;;;;;;5006078;28;20083;-74
2021/11/03 04:47:52;;;;;;;0.32;0.32;;;;;;;;;;5008300;28;20429;-73
2021/11/03 04:50:20;;;;;;;0.28;0.17;;;;;;;;;;5007281;28;20112;-73
2021/11/03 04:52:46;;;;;;;1.83;1.35;;;;;;;;;;5006001;28;20022;-74
2021/11/03 04:55:12;;;;;;;6.75;1.00;;;;;;;;;;5011567;28;20033;-74
2021/11/03 04:57:38;;;;;;;0.35;0.35;;;;;;;;;;5007766;28;20092;-73
2021/11/03 05:00:06;;;;;;;4.38;1.17;;;;;;;;;;5006759;28;20054;-73
2021/11/03 05:02:32;;;;;;;1.67;1.27;;;;;;;;;;5005738;28;20099;-74
2021/11/03 05:04:58;;;;;;;0.40;0.40;;;;;;;;;;5008357;28;20116;-74
2021/11/03 05:07:24;;;;;;;0.70;0.70;;;;;;;;;;5007100;28;20113;-74
2021/11/03 05:09:50;;;;;;;0.38;0.38;;;;;;;;;;5007382;28;20775;-74
2021/11/03 05:12:16;;;;;;;0.35;0.35;;;;;;;;;;4999760;28;20052;-74
2021/11/03 05:14:42;;;;;;;0.32;0.32;;;;;;;;;;5008382;28;20560;-74
2021/11/03 05:17:08;;;;;;;0.30;0.30;;;;;;;;;;5007384;28;20041;-74
2021/11/03 05:19:34;;;;;;;1.20;1.05;;;;;;;;;;5007388;28;20056;-74
2021/11/03 05:22:00;;;;;;;1.48;0.93;;;;;;;;;;5008702;28;20025;-75
2021/11/03 05:24:27;;;;;;;0.70;0.65;;;;;;;;;;5008353;28;20029;-74
2021/11/03 05:26:53;;;;;;;0.60;0.60;;;;;;;;;;5007308;28;20077;-73
2021/11/03 05:29:19;;;;;;;0.40;0.30;;;;;;;;;;5007168;28;20448;-73
2021/11/03 05:31:45;;;;;;;0.30;0.30;;;;;;;;;;5007163;28;20049;-74
2021/11/03 05:34:11;;;;;;;0.43;0.43;;;;;;;;;;5014981;28;20721;-74
2021/11/03 05:36:38;;;;;;;0.73;0.73;;;;;;;;;;5007495;28;20033;-69
2021/11/03 05:39:07;;;;;;;0.70;0.70;;;;;;;;;;5007423;28;20664;-69
2021/11/03 05:41:37;;;;;;;0.35;0.35;;;;;;;;;;5008385;28;20022;-69
2021/11/03 05:44:04;;;;;;;0.40;0.40;;;;;;;;;;5008005;28;20052;-70
2021/11/03 05:46:32;;;;;;;0.70;0.55;;;;;;;;;;5003205;28;20033;-69
2021/11/03 05:48:59;;;;;;;0.30;0.30;;;;;;;;;;5007711;28;20378;-69
2021/11/03 05:51:25;;;;;;;0.28;0.28;;;;;;;;;;5007316;28;20128;-69
2021/11/03 05:53:52;;;;;;;0.50;0.47;;;;;;;;;;5005043;28;20044;-72
2021/11/03 05:56:18;;;;;;;0.20;0.20;;;;;;;;;;5005630;28;20030;-69
2021/11/03 05:58:44;;;;;;;0.20;0.20;;;;;;;;;;5010025;28;20021;-70
2021/11/03 06:01:10;;;;;;;0.20;0.20;;;;;;;;;;5006880;28;20022;-70
2021/11/03 06:03:36;;;;;;;1.40;1.15;;;;;;;;;;5005578;28;20026;-69
2021/11/03 06:06:03;;;;;;;0.68;0.68;;;;;;;;;;5003940;28;20469;-70
2021/11/03 06:08:29;;;;;;;1.05;0.65;;;;;;;;;;5010179;28;20497;-70
2021/11/03 06:10:56;;;;;;;0.32;0.32;;;;;;;;;;5010835;28;20072;-68
2021/11/03 06:13:45;;;;;;;1.00;0.98;;;;;;;;;;5007403;28;20030;-69
2021/11/03 06:16:11;;;;;;;9.52;1.25;;;;;;;;;;5007723;28;20046;-69
2021/11/03 06:18:37;;;;;;;1.85;1.48;;;;;;;;;;5009636;28;20057;-69
2021/11/03 06:21:04;;;;;;;0.55;0.55;;;;;;;;;;5010629;28;20070;-69
2021/11/03 06:23:30;;;;;;;0.65;0.65;;;;;;;;;;5009622;28;20034;-68
2021/11/03 06:25:56;;;;;;;0.10;0.10;;;;;;;;;;5009748;28;20576;-69
2021/11/03 06:28:22;;;;;;;0.63;0.63;;;;;;;;;;5016976;28;20057;-68
2021/11/03 06:30:48;;;;;;;0.10;0.10;;;;;;;;;;5010061;28;20066;-69
2021/11/03 06:33:14;;;;;;;1.27;0.90;;;;;;;;;;5012667;28;20155;-69
2021/11/03 06:35:40;;;;;;;0.60;0.60;;;;;;;;;;5013389;28;20030;-70
2021/11/03 06:38:07;;;;;;;2.30;1.15;;;;;;;;;;5015466;28;20034;-73
2021/11/03 06:40:35;;;;;;;0.52;0.52;;;;;;;;;;5013782;28;20435;-72
2021/11/03 06:43:01;;;;;;;0.52;0.52;;;;;;;;;;5015613;28;20554;-73
2021/11/03 06:45:27;;;;;;;0.77;0.77;;;;;;;;;;5010804;28;20037;-72
2021/11/03 06:47:53;;;;;;;4.07;2.53;;;;;;;;;;5008710;28;20129;-72
2021/11/03 06:50:22;;;;;;;0.45;0.45;;;;;;;;;;5013115;28;20112;-72
2021/11/03 06:52:48;;;;;;;1.27;1.17;;;;;;;;;;5009409;28;20484;-72
2021/11/03 06:55:14;;;;;;;0.52;0.52;;;;;;;;;;5018197;28;20030;-72
2021/11/03 06:57:40;;;;;;;0.43;0.43;;;;;;;;;;5021222;28;20041;-73
2021/11/03 07:00:08;;;;;;;1.75;0.90;;;;;;;;;;5012585;28;20084;-73
2021/11/03 07:02:34;;;;;;;1.60;1.17;;;;;;;;;;5007663;28;20120;-71
2021/11/03 07:05:00;;;;;;;0.60;0.60;;;;;;;;;;5006108;28;20135;-68
2021/11/03 07:07:26;;;;;;;0.20;0.20;;;;;;;;;;5007688;28;20030;-69
2021/11/03 07:09:52;;;;;;;0.70;0.70;;;;;;;;;;5008922;28;20056;-69
2021/11/03 07:12:18;;;;;;;1.27;1.23;;;;;;;;;;5009603;28;20026;-68
2021/11/03 07:14:44;;;;;;;0.47;0.47;;;;;;;;;;5009649;28;20473;-69
2021/11/03 07:17:12;;;;;;;11.32;1.77;;;;;;;;;;5009739;28;20025;-69
2021/11/03 07:19:39;;;;;;;2.63;0.52;;;;;;;;;;5009769;28;20530;-68
2021/11/03 07:22:05;;;;;;;0.60;0.60;;;;;;;;;;5009541;28;20026;-68
2021/11/03 07:24:30;;;;;;;3.10;0.85;;;;;;;;;;5009160;28;20546;-69
2021/11/03 07:26:56;;;;;;;0.77;0.77;;;;;;;;;;5010310;28;20512;-69
2021/11/03 07:29:22;;;;;;;1.27;0.80;;;;;;;;;;5009005;28;20041;-68
2021/11/03 07:31:54;;;;;;;1.00;1.00;;;;;;;;;;5008651;28;20032;-69
2021/11/03 07:34:20;;;;;;;0.17;0.17;;;;;;;;;;5006998;28;20539;-69
2021/11/03 07:36:46;;;;;;;1.17;1.08;;;;;;;;;;5009747;28;20057;-69
2021/11/03 07:39:13;;;;;;;0.70;0.70;;;;;;;;;;5009374;28;20040;-69
2021/11/03 07:41:39;;;;;;;1.23;1.17;;;;;;;;;;5008986;28;20034;-69
2021/11/03 07:44:06;;;;;;;0.77;0.70;;;;;;;;;;5008880;28;20034;-70
2021/11/03 07:46:32;;;;;;;0.73;0.73;;;;;;;;;;5009445;28;20030;-69
2021/11/03 07:48:58;;;;;;;0.30;0.30;;;;;;;;;;5008720;28;20029;-69
2021/11/03 07:51:25;;;;;;;1.58;1.45;;;;;;;;;;5008668;28;20480;-70
2021/11/03 07:53:51;;;;;;;1.00;0.73;;;;;;;;;;5009309;28;20033;-70
2021/11/03 07:56:20;;;;;;;3.30;1.88;;;;;;;;;;5006269;28;20058;-68
2021/11/03 07:58:47;;;;;;;0.17;0.17;;;;;;;;;;5003215;28;20044;-69
2021/11/03 08:01:12;;;;;;;2.35;1.13;;;;;;;;;;5007619;28;20068;-68
2021/11/03 08:03:38;;;;;;;0.40;0.40;;;;;;;;;;5009276;28;20138;-69
2021/11/03 08:06:05;;;;;;;2.67;1.30;;;;;;;;;;5007680;28;20481;-69
2021/11/03 08:08:32;;;;;;;0.85;0.60;;;;;;;;;;5004418;28;20689;-69
2021/11/03 08:10:58;;;;;;;0.68;0.68;;;;;;;;;;5007070;28;20073;-70
2021/11/03 08:13:27;;;;;;;1.17;1.08;;;;;;;;;;5008456;28;20030;-69
2021/11/03 08:15:54;;;;;;;0.22;0.22;;;;;;;;;;5007545;28;20033;-70
2021/11/03 08:18:22;;;;;;;2.55;1.25;;;;;;;;;;5008311;28;20025;-69
2021/11/03 08:20:48;;;;;;;0.82;0.82;;;;;;;;;;5007698;28;20050;-69
2021/11/03 08:23:14;;;;;;;1.55;1.25;;;;;;;;;;5007598;28;20026;-69
2021/11/03 08:25:41;;;;;;;1.42;1.25;;;;;;;;;;5007322;28;20029;-69
2021/11/03 08:28:07;;;;;;;1.58;1.33;;;;;;;;;;5008404;28;20528;-69
2021/11/03 08:30:34;;;;;;;0.95;0.70;;;;;;;;;;5007464;28;20018;-69
2021/11/03 08:33:05;;;;;;;0.80;0.80;;;;;;;;;;5004288;28;20021;-70
2021/11/03 08:35:31;;;;;;;2.13;1.13;;;;;;;;;;5007038;28;20077;-68
2021/11/03 08:38:01;;;;;;;0.95;0.95;;;;;;;;;;5008207;28;20044;-69
2021/11/03 08:40:27;;;;;;;1.52;1.42;;;;;;;;;;5007342;28;20445;-69
2021/11/03 08:42:55;;;;;;;4.80;1.20;;;;;;;;;;5008253;28;20038;-69
2021/11/03 08:45:20;;;;;;;1.10;1.05;;;;;;;;;;5007005;28;20145;-70
2021/11/03 08:47:47;;;;;;;0.20;0.20;;;;;;;;;;5008389;28;20129;-69
2021/11/03 08:50:15;;;;;;;1.58;1.48;;;;;;;;;;5007525;28;20033;-69
2021/11/03 08:52:41;;;;;;;1.45;1.33;;;;;;;;;;5007534;28;20026;-69
2021/11/03 08:55:08;;;;;;;1.65;1.38;;;;;;;;;;5007523;28;20133;-69
2021/11/03 08:57:35;;;;;;;2.30;1.77;;;;;;;;;;5008042;28;20534;-68
2021/11/03 09:00:02;;;;;;;1.05;1.05;;;;;;;;;;5007505;28;20404;-69
2021/11/03 09:02:28;;;;;;;0.30;0.30;;;;;;;;;;5007941;28;20026;-69
2021/11/03 09:04:54;;;;;;;1.25;1.15;;;;;;;;;;5004729;28;20114;-69
2021/11/03 09:07:20;;;;;;;4.95;2.05;;;;;;;;;;5006169;28;20383;-71
2021/11/03 09:09:46;;;;;;;1.08;0.77;;;;;;;;;;5006557;28;20022;-70
2021/11/03 09:12:13;;;;;;;1.15;1.13;;;;;;;;;;5007193;28;20033;-70
2021/11/03 09:14:39;;;;;;;5.25;2.15;;;;;;;;;;5006630;28;20022;-69
2021/11/03 09:17:06;;;;;;;1.08;0.43;;;;;;;;;;5007398;28;20168;-69
2021/11/03 09:19:32;;;;;;;0.22;0.22;;;;;;;;;;5007502;28;20115;-69
2021/11/03 09:21:58;;;;;;;0.75;0.75;;;;;;;;;;5007041;28;20116;-69
2021/11/03 09:24:24;;;;;;;1.48;1.38;;;;;;;;;;5005921;28;20088;-69
2021/11/03 09:26:50;;;;;;;3.67;2.17;;;;;;;;;;5007958;28;20021;-69
2021/11/03 09:29:16;;;;;;;0.40;0.40;;;;;;;;;;5006163;28;20022;-70
2021/11/03 09:31:44;;;;;;;3.65;0.90;;;;;;;;;;5008496;28;20026;-70
2021/11/03 09:34:10;;;;;;;0.45;0.45;;;;;;;;;;5011682;28;20033;-69
2021/11/03 09:36:42;;;;;;;0.85;0.82;;;;;;;;;;5010382;28;20022;-69
2021/11/03 09:39:12;;;;;;;0.43;0.43;;;;;;;;;;5010745;28;20088;-69
2021/11/03 09:41:50;;;;;;;0.38;0.38;;;;;;;;;;5011148;28;20029;-77
2021/11/03 09:44:18;;;;;;;1.85;1.02;;;;;;;;;;5009960;28;20038;-68
2021/11/03 09:46:51;;;;;;;0.20;0.20;;;;;;;;;;5011164;28;20013;-72
2021/11/03 09:49:27;;;;;;;1.38;1.27;;;;;;;;;;5009400;28;20060;-73
2021/11/03 09:51:55;;;;;;;0.50;0.47;;;;;;;;;;5007828;28;20021;-73
2021/11/03 09:54:32;;;;;;;1.38;0.85;;;;;;;;;;5009725;28;20025;-73
2021/11/03 09:57:17;;;;;;;2.67;1.00;;;;;;;;;;4999095;28;20417;-73
2021/11/03 09:59:53;;;;;;;0.20;0.20;;;;;;;;;;5009947;28;20022;-73
2021/11/03 10:02:24;;;;;;;0.93;0.85;;;;;;;;;;5009731;28;20045;-73
2021/11/03 10:04:58;;;;;;;0.77;0.35;;;;;;;;;;5010145;28;20026;-73
2021/11/03 10:07:40;;;;;;;0.30;0.30;;;;;;;;;;5010962;28;20101;-74
2021/11/03 10:10:19;;;;;;;0.32;0.32;;;;;;;;;;5010307;28;20033;-73
2021/11/03 10:12:45;;;;;;;0.47;0.47;;;;;;;;;;5008511;28;20025;-72
2021/11/03 10:15:11;;;;;;;0.55;0.55;;;;;;;;;;5006262;28;20038;-73
2021/11/03 10:17:37;;;;;;;0.70;0.70;;;;;;;;;;5010049;28;20052;-72
2021/11/03 10:20:20;;;;;;;2.47;0.68;;;;;;;;;;5006899;28;20042;-72
2021/11/03 10:22:45;;;;;;;1.38;0.80;;;;;;;;;;5008740;28;20034;-72
2021/11/03 10:25:17;;;;;;;1.30;1.15;;;;;;;;;;5011037;28;20148;-72
2021/11/03 10:27:45;;;;;;;0.38;0.38;;;;;;;;;;5010708;28;20030;-72
2021/11/03 10:30:20;;;;;;;1.95;1.35;;;;;;;;;;5010310;28;20084;-72
2021/11/03 10:32:46;;;;;;;1.00;1.00;;;;;;;;;;5010609;28;20037;-72
2021/11/03 10:35:17;;;;;;;2.42;1.15;;;;;;;;;;5009899;28;20085;-72
2021/11/03 10:37:44;;;;;;;4.00;0.95;;;;;;;;;;5009827;28;20061;-72
2021/11/03 10:40:17;;;;;;;1.17;1.08;;;;;;;;;;5010302;28;20030;-73
2021/11/03 10:42:49;;;;;;;2.75;1.70;;;;;;;;;;5009010;28;20072;-73
2021/11/03 10:45:15;;;;;;;;;;;;;;;;;;5010515;28;20022;-73
2021/11/03 10:47:42;;;;;;;1.17;1.08;;;;;;;;;;5010442;28;19969;-72
2021/11/03 10:50:33;;;;;;;2.28;0.90;;;;;;;;;;5010069;28;20030;-74
2021/11/03 10:53:02;;;;;;;1.45;0.82;;;;;;;;;;5010047;28;20050;-73
2021/11/03 10:55:29;;;;;;;0.82;0.63;;;;;;;;;;5009746;28;20077;-72
2021/11/03 10:58:18;;;;;;;0.75;0.75;;;;;;;;;;5009583;28;20503;-72
2021/11/03 11:00:56;;;;;;;0.55;0.55;;;;;;;;;;5009571;28;20030;-72
2021/11/03 11:03:25;;;;;;;0.70;0.55;;;;;;;;;;5009243;28;20054;-73
2021/11/03 11:05:55;;;;;;;0.45;0.30;;;;;;;;;;5009502;28;20030;-72
2021/11/03 11:08:23;;;;;;;0.32;0.32;;;;;;;;;;5009548;28;20038;-72
2021/11/03 11:10:52;;;;;;;0.77;0.77;;;;;;;;;;5010191;28;20031;-72
2021/11/03 11:13:22;;;;;;;0.50;0.50;;;;;;;;;;5009742;28;20112;-72
2021/11/03 11:16:04;;;;;;;2.22;0.88;;;;;;;;;;5007638;28;20060;-72
2021/11/03 11:18:34;;;;;;;0.55;0.50;;;;;;;;;;5015404;28;20030;-73
2021/11/03 11:21:07;;;;;;;0.65;0.65;;;;;;;;;;5005906;28;20074;-72
2021/11/03 11:23:42;;;;;;;0.65;0.50;;;;;;;;;;5007596;28;20056;-72
2021/11/03 11:26:24;;;;;;;0.40;0.40;;;;;;;;;;5012926;28;20026;-72
2021/11/03 11:28:53;;;;;;;2.40;0.52;;;;;;;;;;5011266;28;20492;-72
2021/11/03 11:31:23;;;;;;;1.00;0.90;;;;;;;;;;5008851;28;20072;-72
2021/11/03 11:33:54;;;;;;;0.50;0.50;;;;;;;;;;5009616;28;20038;-73
2021/11/03 11:36:40;;;;;;;0.38;0.38;;;;;;;;;;5009349;28;20029;-73
2021/11/03 11:39:09;;;;;;;0.85;0.85;;;;;;;;;;5021734;28;20087;-73
2021/11/03 11:41:41;;;;;;;0.95;0.73;;;;;;;;;;5014319;28;20033;-73
2021/11/03 11:44:14;;;;;;;0.90;0.70;;;;;;;;;;5008919;28;20034;-72
2021/11/03 11:46:39;;;;;;;1.52;0.55;;;;;;;;;;5008570;28;20029;-73
2021/11/03 11:49:10;;;;;;;0.50;0.50;;;;;;;;;;5009679;28;20101;-73
2021/11/03 11:54:33;;;;;;;0.10;0.10;;;;;;;;;;5008782;28;20449;-72
2021/11/03 11:56:58;;;;;;;;;;;;;;;;;;5009844;28;20037;-72
2021/11/03 11:59:44;;;;;;;0.35;0.35;;;;;;;;;;5007625;28;20300;-72
2021/11/03 12:02:16;;;;;;;0.55;0.55;;;;;;;;;;5008846;28;20041;-72
2021/11/03 12:04:42;;;;;;;0.88;0.88;;;;;;;;;;5009226;28;20041;-71
2021/11/03 12:07:14;;;;;;;6.60;0.80;;;;;;;;;;5009082;28;20021;-72
2021/11/03 12:09:58;;;;;;;0.40;0.40;;;;;;;;;;5009348;28;20571;-72
2021/11/03 12:12:24;;;;;;;0.90;0.90;;;;;;;;;;5008992;28;20124;-72
2021/11/03 12:14:55;;;;;;;0.55;0.55;;;;;;;;;;5009209;28;20107;-72
2021/11/03 12:17:42;;;;;;;0.28;0.28;;;;;;;;;;5007112;28;20117;-72
2021/11/03 12:20:26;;;;;;;3.40;1.17;;;;;;;;;;5001290;28;20540;-72
2021/11/03 12:22:54;;;;;;;0.35;0.35;;;;;;;;;;5001844;28;20069;-72
2021/11/03 12:25:24;;;;;;;1.10;0.70;;;;;;;;;;5006372;28;20050;-71
2021/11/03 12:27:51;;;;;;;0.10;0.10;;;;;;;;;;5005165;28;20028;-72
2021/11/03 12:30:20;;;;;;;0.20;0.20;;;;;;;;;;5007676;28;20084;-72
2021/11/03 12:32:46;;;;;;;0.75;0.75;;;;;;;;;;5015681;28;20463;-72
2021/11/03 12:35:18;;;;;;;0.45;0.45;;;;;;;;;;5012549;28;20033;-73
2021/11/03 12:37:53;;;;;;;0.75;0.28;;;;;;;;;;5007876;28;20423;-72
2021/11/03 12:40:22;;;;;;;0.57;0.57;;;;;;;;;;5004534;28;20026;-72
2021/11/03 12:42:52;;;;;;;0.22;0.22;;;;;;;;;;5008435;28;20084;-72
2021/11/03 12:45:20;;;;;;;0.28;0.28;;;;;;;;;;5006464;28;20117;-72
2021/11/03 12:47:52;;;;;;;0.45;0.30;;;;;;;;;;5003718;28;20104;-72
2021/11/03 12:50:17;;;;;;;;;;;;;;;;;;5009620;28;21969;-72
2021/11/03 12:52:44;;;;;;;0.22;0.22;;;;;;;;;;5007998;28;19913;-73
2021/11/03 12:55:42;;;;;;;0.20;0.20;;;;;;;;;;5006091;28;20084;-72
2021/11/03 12:58:24;;;;;;;0.50;0.50;;;;;;;;;;4974125;28;20657;-72
2021/11/03 13:00:49;;;;;;;0.20;0.20;;;;;;;;;;5008583;28;20041;-73
2021/11/03 13:03:23;;;;;;;0.50;0.50;;;;;;;;;;5007989;28;20042;-72
2021/11/03 13:05:51;;;;;;;0.95;0.68;;;;;;;;;;5009436;28;20029;-72
2021/11/03 13:08:20;;;;;;;0.20;0.20;;;;;;;;;;5011308;28;20129;-68
2021/11/03 13:10:46;;;;;;;0.20;0.20;;;;;;;;;;5011579;28;20022;-69
2021/11/03 13:13:12;;;;;;;0.43;0.43;;;;;;;;;;5009468;28;20678;-69
2021/11/03 13:15:49;;;;;;;1.02;0.70;;;;;;;;;;5011833;28;20022;-69
2021/11/03 13:18:23;;;;;;;0.38;0.35;;;;;;;;;;5012533;28;20029;-69
2021/11/03 13:21:00;;;;;;;0.10;0.10;;;;;;;;;;5011307;28;20579;-69
2021/11/03 13:23:29;;;;;;;1.25;1.17;;;;;;;;;;5011794;28;20273;-69
2021/11/03 13:25:57;;;;;;;0.43;0.38;;;;;;;;;;5011999;28;20097;-69
2021/11/03 13:28:43;;;;;;;0.30;0.30;;;;;;;;;;5012179;28;20026;-70
2021/11/03 13:31:20;;;;;;;0.85;0.45;;;;;;;;;;5011729;28;20022;-68
2021/11/03 13:34:05;;;;;;;0.32;0.32;;;;;;;;;;5011405;28;20030;-69
2021/11/03 13:36:31;;;;;;;0.55;0.52;;;;;;;;;;5011074;28;20038;-69
2021/11/03 13:39:06;;;;;;;0.77;0.73;;;;;;;;;;5011319;28;20428;-68
2021/11/03 13:41:34;;;;;;;0.45;0.45;;;;;;;;;;5011374;28;20392;-69
2021/11/03 13:44:16;;;;;;;0.25;0.20;;;;;;;;;;5011716;28;20444;-68
2021/11/03 13:46:43;;;;;;;1.08;0.80;;;;;;;;;;5011147;28;20018;-69
2021/11/03 13:49:12;;;;;;;0.10;0.10;;;;;;;;;;5010922;28;20037;-69
2021/11/03 13:51:40;;;;;;;0.20;0.20;;;;;;;;;;5008512;28;20393;-69
2021/11/03 13:54:24;;;;;;;0.45;0.45;;;;;;;;;;5011747;28;20035;-69
2021/11/03 13:56:51;;;;;;;1.65;0.82;;;;;;;;;;5011387;28;20034;-69
2021/11/03 13:59:23;;;;;;;0.30;0.30;;;;;;;;;;5010825;28;20551;-69
2021/11/03 14:01:54;;;;;;;0.35;0.28;;;;;;;;;;5010662;28;20080;-69
2021/11/03 14:04:22;;;;;;;1.50;0.50;;;;;;;;;;5011330;28;20033;-68
2021/11/03 14:07:05;;;;;;;0.40;0.40;;;;;;;;;;5011436;28;20037;-69
2021/11/03 14:09:31;;;;;;;0.00;0.00;;;;;;;;;;5010635;28;20029;-69
2021/11/03 14:11:58;;;;;;;0.60;0.60;;;;;;;;;;5010121;28;20458;-69
2021/11/03 14:14:25;;;;;;;0.30;0.30;;;;;;;;;;5010598;28;20046;-69
2021/11/03 14:16:53;;;;;;;0.50;0.30;;;;;;;;;;5011161;28;20030;-70
2021/11/03 14:19:25;;;;;;;0.82;0.75;;;;;;;;;;5007960;28;20024;-70
2021/11/03 14:21:53;;;;;;;0.70;0.65;;;;;;;;;;5005049;28;20030;-68
2021/11/03 14:24:19;;;;;;;1.23;0.57;;;;;;;;;;5011483;28;20056;-69
2021/11/03 14:26:45;;;;;;;0.73;0.55;;;;;;;;;;5016515;28;20575;-69
2021/11/03 14:29:11;;;;;;;0.10;0.10;;;;;;;;;;5009713;28;20033;-69
2021/11/03 14:31:37;;;;;;;0.10;0.10;;;;;;;;;;5013064;28;20021;-70
2021/11/03 14:34:04;;;;;;;0.45;0.45;;;;;;;;;;5007505;28;20539;-70
2021/11/03 14:36:32;;;;;;;0.85;0.47;;;;;;;;;;5009810;28;20555;-69
2021/11/03 14:39:01;;;;;;;0.10;0.10;;;;;;;;;;5012541;28;20030;-69
2021/11/03 14:41:27;;;;;;;0.35;0.35;;;;;;;;;;5009190;28;20076;-69
2021/11/03 14:43:54;;;;;;;0.30;0.30;;;;;;;;;;5009824;28;20038;-69
2021/11/03 14:46:22;;;;;;;0.43;0.43;;;;;;;;;;5010114;28;20702;-69
2021/11/03 14:48:49;;;;;;;0.30;0.13;;;;;;;;;;5010161;28;20026;-69
2021/11/03 14:51:15;;;;;;;0.03;0.03;;;;;;;;;;5008458;28;20018;-69
2021/11/03 14:53:41;;;;;;;0.25;0.25;;;;;;;;;;5012422;28;20527;-69